Time;durP1;ratioP1;P1;durP2;ratioP2;P2;SDS_P1;SDS_P2;PMS_P1;PMS_P2;Temp;Humidity;BMP_temperature;BMP_pressure;BME280_temperature;BME280_humidity;BME280_pressure;Samples;Min_cycle;Max_cycle;Signal;HPM_P1;HPM_P2
2023/04/07 00:01:20;;;;;;;;;;;8.20;90.60;;;;;;5038864;28;19917;-81
2023/04/07 00:03:46;;;;;;;;;;;8.30;90.60;;;;;;5035317;28;19936;-80
2023/04/07 00:06:11;;;;;;;;;;;8.30;90.40;;;;;;5029462;28;19925;-80
2023/04/07 00:08:37;;;;;;;;;;;8.40;90.50;;;;;;5040844;28;20365;-81
2023/04/07 00:11:03;;;;;;;;;;;8.50;90.20;;;;;;5036426;28;20005;-80
2023/04/07 00:13:28;;;;;;;;;;;8.50;90.10;;;;;;5038211;28;19996;-81
2023/04/07 00:15:54;;;;;;;;;;;8.50;89.90;;;;;;5033255;28;19959;-81
2023/04/07 00:18:19;;;;;;;;;;;8.50;90.10;;;;;;5048134;28;19975;-80
2023/04/07 00:20:45;;;;;;;;;;;8.50;90.10;;;;;;5034513;28;19977;-80
2023/04/07 00:23:10;;;;;;;;;;;8.40;89.80;;;;;;5034820;28;19913;-80
2023/04/07 00:25:36;;;;;;;;;;;8.50;90.20;;;;;;5034834;28;19959;-81
2023/04/07 00:28:01;;;;;;;;;;;8.50;89.90;;;;;;5033977;28;19924;-83
2023/04/07 00:30:27;;;;;;;;;;;8.40;90.00;;;;;;5028493;28;20393;-83
2023/04/07 00:32:52;;;;;;;;;;;8.30;90.10;;;;;;5034011;28;19913;-84
2023/04/07 00:35:18;;;;;;;;;;;8.30;90.30;;;;;;5033082;28;19978;-83
2023/04/07 00:37:43;;;;;;;;;;;8.30;90.40;;;;;;5032608;28;20732;-84
2023/04/07 00:40:09;;;;;;;;;;;8.30;90.50;;;;;;5036304;28;20007;-83
2023/04/07 00:42:34;;;;;;;;;;;8.30;90.70;;;;;;5038058;28;20380;-83
2023/04/07 00:45:00;;;;;;;;;;;8.40;90.70;;;;;;5031269;28;19921;-83
2023/04/07 00:47:26;;;;;;;;;;;8.40;90.50;;;;;;5027263;28;19913;-83
2023/04/07 00:49:51;;;;;;;;;;;8.30;90.40;;;;;;5031416;28;19945;-83
2023/04/07 00:52:17;;;;;;;;;;;8.30;90.60;;;;;;5032400;28;19978;-82
2023/04/07 00:54:43;;;;;;;;;;;8.40;90.80;;;;;;5031028;28;19923;-83
2023/04/07 00:57:09;;;;;;;;;;;8.40;90.40;;;;;;5032169;28;19913;-83
2023/04/07 00:59:35;;;;;;;;;;;8.40;90.60;;;;;;5030837;28;19951;-83
2023/04/07 01:02:06;;;;;;;;;;;8.40;90.70;;;;;;5031964;28;20556;-84
2023/04/07 01:04:42;;;;;;;;;;;8.60;90.60;;;;;;5030108;28;19929;-84
2023/04/07 01:07:16;;;;;;;;;;;8.50;90.50;;;;;;5045294;28;19920;-83
2023/04/07 01:12:53;;;;;;;;;;;8.50;90.60;;;;;;5027570;28;19928;-83
2023/04/07 01:15:20;;;;;;;;;;;8.50;90.60;;;;;;5034124;28;19921;-84
2023/04/07 01:17:48;;;;;;;;;;;8.60;90.70;;;;;;5034665;28;19913;-82
2023/04/07 01:20:19;;;;;;;;;;;8.50;90.50;;;;;;5018922;28;19913;-85
2023/04/07 01:22:46;;;;;;;;;;;8.60;90.70;;;;;;5032959;28;20241;-83
2023/04/07 01:25:36;;;;;;;;;;;8.60;90.40;;;;;;5035343;28;19946;-83
2023/04/07 01:28:20;;;;;;;;;;;8.50;90.40;;;;;;5036896;28;20211;-82
2023/04/07 01:30:46;;;;;;;;;;;8.40;90.50;;;;;;5021805;28;20772;-82
2023/04/07 01:33:13;;;;;;;;;;;8.50;90.80;;;;;;5030085;28;19975;-83
2023/04/07 01:35:40;;;;;;;;;;;8.40;90.70;;;;;;5032374;28;19999;-82
2023/04/07 01:38:06;;;;;;;;;;;8.50;90.90;;;;;;5033653;28;19928;-81
2023/04/07 01:40:32;;;;;;;;;;;8.50;90.70;;;;;;5035574;28;19917;-81
2023/04/07 01:42:58;;;;;;;;;;;8.50;90.70;;;;;;5034635;28;19935;-81
2023/04/07 01:45:25;;;;;;;;;;;8.50;90.80;;;;;;5031288;28;19917;-83
2023/04/07 01:47:51;;;;;;;;;;;8.60;90.70;;;;;;5022582;28;19913;-81
2023/04/07 01:50:16;;;;;;;;;;;8.60;90.50;;;;;;5045246;28;19936;-81
2023/04/07 01:52:42;;;;;;;;;;;8.60;90.50;;;;;;5048383;28;19917;-81
2023/04/07 01:55:08;;;;;;;;;;;8.60;90.60;;;;;;5050885;28;20039;-82
2023/04/07 01:57:34;;;;;;;;;;;8.60;90.50;;;;;;5043533;28;19926;-82
2023/04/07 02:00:00;;;;;;;;;;;8.70;90.40;;;;;;5032086;28;20349;-83
2023/04/07 02:02:25;;;;;;;;;;;8.60;90.30;;;;;;5029713;28;19921;-83
2023/04/07 02:04:55;;;;;;;;;;;8.80;90.40;;;;;;5036184;28;19917;-80
2023/04/07 02:07:25;;;;;;;;;;;8.70;90.30;;;;;;5031855;28;19913;-82
2023/04/07 02:09:55;;;;;;;;;;;8.60;90.30;;;;;;5051990;23;19917;-86
2023/04/07 02:12:22;;;;;;;;;;;8.60;90.40;;;;;;5009336;28;20375;-85
2023/04/07 02:14:51;;;;;;;;;;;8.70;90.50;;;;;;5007818;28;19918;-85
2023/04/07 02:17:17;;;;;;;;;;;8.60;90.50;;;;;;5015688;28;20003;-85
2023/04/07 02:19:43;;;;;;;;;;;8.70;90.50;;;;;;5014299;28;20031;-85
2023/04/07 02:22:10;;;;;;;;;;;8.70;90.30;;;;;;5010645;28;19949;-85
2023/04/07 02:24:35;;;;;;;;;;;8.70;90.60;;;;;;5014429;28;20334;-85
2023/04/07 02:27:01;;;;;;;;;;;8.70;90.50;;;;;;5001464;28;19917;-86
2023/04/07 02:29:26;;;;;;;;;;;8.70;90.50;;;;;;5010225;28;19913;-85
2023/04/07 02:31:52;;;;;;;;;;;8.70;90.20;;;;;;5025535;28;19917;-86
2023/04/07 02:34:17;;;;;;;;;;;8.80;90.20;;;;;;5028006;28;19914;-85
2023/04/07 02:36:43;;;;;;;;;;;8.70;90.20;;;;;;5011476;28;19929;-85
2023/04/07 02:39:11;;;;;;;;;;;8.70;90.30;;;;;;5011338;28;19914;-85
2023/04/07 02:41:37;;;;;;;;;;;8.80;90.40;;;;;;5012220;28;19914;-85
2023/04/07 02:44:02;;;;;;;;;;;8.70;90.20;;;;;;5006361;28;19917;-82
2023/04/07 02:46:28;;;;;;;;;;;8.60;90.40;;;;;;5002097;28;20402;-83
2023/04/07 02:48:56;;;;;;;;;;;8.60;90.50;;;;;;5010164;28;19937;-85
2023/04/07 02:51:22;;;;;;;;;;;8.70;90.70;;;;;;5010283;28;19913;-84
2023/04/07 02:53:47;;;;;;;;;;;8.80;90.60;;;;;;5002260;28;19914;-83
2023/04/07 02:56:14;;;;;;;;;;;8.70;90.50;;;;;;5008000;28;19918;-83
2023/04/07 02:58:39;;;;;;;;;;;8.70;90.60;;;;;;5010963;28;20044;-83
2023/04/07 03:01:05;;;;;;;;;;;8.70;90.70;;;;;;5012166;28;19971;-84
2023/04/07 03:03:30;;;;;;;;;;;8.70;90.50;;;;;;4997741;28;19913;-83
2023/04/07 03:05:58;;;;;;;;;;;8.80;90.70;;;;;;5011604;28;19914;-83
2023/04/07 03:08:26;;;;;;;;;;;8.80;90.50;;;;;;5008138;28;19917;-83
2023/04/07 03:10:51;;;;;;;;;;;8.70;90.60;;;;;;5014440;28;20001;-83
2023/04/07 03:13:20;;;;;;;;;;;8.60;90.60;;;;;;5013175;28;19913;-82
2023/04/07 03:15:46;;;;;;;;;;;8.60;90.70;;;;;;5008434;28;19981;-83
2023/04/07 03:18:11;;;;;;;;;;;8.60;90.80;;;;;;4998903;28;19969;-83
2023/04/07 03:20:37;;;;;;;;;;;8.60;90.90;;;;;;5006678;28;20386;-83
2023/04/07 03:23:05;;;;;;;;;;;8.60;90.90;;;;;;5025848;28;20247;-84
2023/04/07 03:25:31;;;;;;;;;;;8.60;90.70;;;;;;5024786;28;19960;-84
2023/04/07 03:28:00;;;;;;;;;;;8.60;90.80;;;;;;5011947;28;19917;-84
2023/04/07 03:30:26;;;;;;;;;;;8.70;90.90;;;;;;5009040;28;20342;-84
2023/04/07 03:32:51;;;;;;;;;;;8.80;90.90;;;;;;5041839;28;19909;-83
2023/04/07 03:35:17;;;;;;;;;;;8.80;90.60;;;;;;5015349;28;20011;-84
2023/04/07 03:37:48;;;;;;;;;;;8.80;90.60;;;;;;5015989;28;20368;-84
2023/04/07 03:40:14;;;;;;;;;;;8.80;90.60;;;;;;5020862;28;20642;-84
2023/04/07 03:42:39;;;;;;;;;;;8.70;90.70;;;;;;5010967;28;20011;-84
2023/04/07 03:45:05;;;;;;;;;;;8.80;90.90;;;;;;5013962;28;19917;-84
2023/04/07 03:47:30;;;;;;;;;;;8.80;90.90;;;;;;5009200;28;19913;-84
2023/04/07 03:49:56;;;;;;;;;;;8.70;90.90;;;;;;5011261;28;19913;-84
2023/04/07 03:52:21;;;;;;;;;;;8.80;91.00;;;;;;5028733;28;19909;-84
2023/04/07 03:54:47;;;;;;;;;;;8.70;90.80;;;;;;5002166;28;19918;-84
2023/04/07 03:57:21;;;;;;;;;;;8.80;90.80;;;;;;5021706;28;20376;-84
2023/04/07 03:59:49;;;;;;;;;;;8.80;90.90;;;;;;5002974;28;20282;-84
2023/04/07 04:02:15;;;;;;;;;;;8.80;91.00;;;;;;5006813;28;19957;-83
2023/04/07 04:04:41;;;;;;;;;;;8.80;91.20;;;;;;5013153;28;19964;-84
2023/04/07 04:07:06;;;;;;;;;;;8.90;91.20;;;;;;5023153;28;19910;-84
2023/04/07 04:09:32;;;;;;;;;;;8.80;91.00;;;;;;5000514;28;19913;-84
2023/04/07 04:11:57;;;;;;;;;;;8.80;91.10;;;;;;5009490;28;20303;-84
2023/04/07 04:14:23;;;;;;;;;;;8.90;91.30;;;;;;5007888;28;19961;-84
2023/04/07 04:16:49;;;;;;;;;;;8.90;91.50;;;;;;5008574;28;19921;-84
2023/04/07 04:19:14;;;;;;;;;;;9.00;91.00;;;;;;5015992;28;19910;-84
2023/04/07 04:21:42;;;;;;;;;;;9.00;91.00;;;;;;5010304;28;19960;-84
2023/04/07 04:24:08;;;;;;;;;;;9.00;90.80;;;;;;5021495;28;19920;-84
2023/04/07 04:26:34;;;;;;;;;;;9.00;90.90;;;;;;5009927;28;19918;-84
2023/04/07 04:28:59;;;;;;;;;;;9.00;91.00;;;;;;5009176;28;20007;-85
2023/04/07 04:31:27;;;;;;;;;;;9.10;90.60;;;;;;5010982;28;19921;-84
2023/04/07 04:33:53;;;;;;;;;;;9.00;90.70;;;;;;5010658;28;19940;-84
2023/04/07 04:36:18;;;;;;;;;;;9.00;90.80;;;;;;5006823;28;19917;-84
2023/04/07 04:38:44;;;;;;;;;;;9.00;91.10;;;;;;5006310;28;19917;-84
2023/04/07 04:41:12;;;;;;;;;;;9.10;90.70;;;;;;5011219;28;19913;-84
2023/04/07 04:43:37;;;;;;;;;;;9.00;90.60;;;;;;5017705;28;19924;-84
2023/04/07 04:46:03;;;;;;;;;;;9.00;90.90;;;;;;5025028;28;19917;-83
2023/04/07 04:48:31;;;;;;;;;;;8.90;91.10;;;;;;5032521;28;20289;-84
2023/04/07 04:51:12;;;;;;;;;;;9.00;91.00;;;;;;5028057;28;19969;-83
2023/04/07 04:53:40;;;;;;;;;;;9.00;91.00;;;;;;5015374;28;19914;-83
2023/04/07 04:56:06;;;;;;;;;;;9.00;90.90;;;;;;5007517;28;19932;-85
2023/04/07 04:58:31;;;;;;;;;;;9.00;90.50;;;;;;5014956;28;20193;-83
2023/04/07 05:01:07;;;;;;;;;;;9.00;90.50;;;;;;5026299;28;19914;-83
2023/04/07 05:03:35;;;;;;;;;;;9.00;90.50;;;;;;5026929;28;19914;-83
2023/04/07 05:06:03;;;;;;;;;;;8.90;90.90;;;;;;5024005;28;19921;-84
2023/04/07 05:08:39;;;;;;;;;;;8.80;91.00;;;;;;5009858;28;20092;-83
2023/04/07 05:11:07;;;;;;;;;;;8.80;91.20;;;;;;5008616;28;19921;-84
2023/04/07 05:13:38;;;;;;;;;;;8.80;91.00;;;;;;5010216;28;19986;-83
2023/04/07 05:16:07;;;;;;;;;;;8.80;91.10;;;;;;5006857;28;19929;-84
2023/04/07 05:18:35;;;;;;;;;;;8.80;91.40;;;;;;5009167;28;19969;-84
2023/04/07 05:21:11;;;;;;;;;;;8.80;91.50;;;;;;5011270;28;19928;-84
2023/04/07 05:23:37;;;;;;;;;;;8.80;91.10;;;;;;5013911;28;19913;-84
2023/04/07 05:26:02;;;;;;;;;;;8.70;91.30;;;;;;5013986;28;20056;-84
2023/04/07 05:28:28;;;;;;;;;;;8.80;91.30;;;;;;5013222;28;19967;-84
2023/04/07 05:30:53;;;;;;;;;;;8.80;91.30;;;;;;5031656;28;19914;-84
2023/04/07 05:33:19;;;;;;;;;;;8.70;91.60;;;;;;5012457;28;20208;-84
2023/04/07 05:35:45;;;;;;;;;;;8.80;91.40;;;;;;5012613;28;19963;-84
2023/04/07 05:38:11;;;;;;;;;;;9.00;91.20;;;;;;5012872;28;20427;-84
2023/04/07 05:40:37;;;;;;;;;;;8.90;90.90;;;;;;5004450;28;20072;-84
2023/04/07 05:43:02;;;;;;;;;;;8.90;90.60;;;;;;5014443;28;20287;-84
2023/04/07 05:45:28;;;;;;;;;;;8.80;90.90;;;;;;5012338;28;19913;-84
2023/04/07 05:47:53;;;;;;;;;;;8.90;90.90;;;;;;5012788;28;19952;-84
2023/04/07 05:50:18;;;;;;;;;;;8.80;90.80;;;;;;5010944;28;19910;-83
2023/04/07 05:52:44;;;;;;;;;;;8.80;91.10;;;;;;5015296;28;19913;-84
2023/04/07 05:55:10;;;;;;;;;;;8.70;91.30;;;;;;5012636;28;20021;-84
2023/04/07 05:57:36;;;;;;;;;;;8.70;91.20;;;;;;5013330;28;20196;-84
2023/04/07 06:00:01;;;;;;;;;;;8.80;91.30;;;;;;5012374;28;19928;-84
2023/04/07 06:02:27;;;;;;;;;;;8.80;91.20;;;;;;5013798;28;20375;-84
2023/04/07 06:04:52;;;;;;;;;;;8.80;91.40;;;;;;5013044;28;20105;-84
2023/04/07 06:07:18;;;;;;;;;;;8.80;90.90;;;;;;5035477;28;19913;-84
2023/04/07 06:09:43;;;;;;;;;;;8.90;91.10;;;;;;5040228;28;19932;-84
2023/04/07 06:12:11;;;;;;;;;;;8.90;91.20;;;;;;5016896;28;19921;-84
2023/04/07 06:14:36;;;;;;;;;;;9.00;90.60;;;;;;5021850;28;20004;-84
2023/04/07 06:17:02;;;;;;;;;;;8.90;90.80;;;;;;5014245;28;19957;-84
2023/04/07 06:19:27;;;;;;;;;;;8.90;91.20;;;;;;5012026;28;19924;-84
2023/04/07 06:21:53;;;;;;;;;;;8.90;91.00;;;;;;5011299;28;19929;-84
2023/04/07 06:24:21;;;;;;;;;;;8.80;90.90;;;;;;5021421;28;19913;-84
2023/04/07 06:26:47;;;;;;;;;;;9.00;90.80;;;;;;5008371;28;19914;-84
2023/04/07 06:29:12;;;;;;;;;;;8.90;90.60;;;;;;5020024;28;19920;-83
2023/04/07 06:31:40;;;;;;;;;;;8.90;90.70;;;;;;5023015;28;19914;-84
2023/04/07 06:34:05;;;;;;;;;;;8.90;90.90;;;;;;5005166;28;20000;-84
2023/04/07 06:36:32;;;;;;;;;;;8.90;90.20;;;;;;5009759;28;19962;-84
2023/04/07 06:39:00;;;;;;;;;;;8.80;90.40;;;;;;5027731;28;19913;-84
2023/04/07 06:41:26;;;;;;;;;;;9.00;89.90;;;;;;5015237;28;19937;-84
2023/04/07 06:43:51;;;;;;;;;;;8.90;90.20;;;;;;5026562;28;20418;-84
2023/04/07 06:46:17;;;;;;;;;;;8.80;90.60;;;;;;5010760;28;20008;-85
2023/04/07 06:48:43;;;;;;;;;;;8.80;90.30;;;;;;5005426;28;19924;-85
2023/04/07 06:51:11;;;;;;;;;;;8.70;90.60;;;;;;5008768;28;19920;-84
2023/04/07 06:53:37;;;;;;;;;;;8.80;91.10;;;;;;5010776;28;19933;-83
2023/04/07 06:56:06;;;;;;;;;;;8.80;90.50;;;;;;5009802;28;19949;-83
2023/04/07 06:58:37;;;;;;;;;;;8.80;90.30;;;;;;5008309;28;19914;-83
2023/04/07 07:01:03;;;;;;;;;;;8.90;90.50;;;;;;5007804;28;19922;-83
2023/04/07 07:03:30;;;;;;;;;;;8.80;90.10;;;;;;5002014;28;19914;-82
2023/04/07 07:05:58;;;;;;;;;;;8.90;90.10;;;;;;5007676;28;20370;-83
2023/04/07 07:08:25;;;;;;;;;;;8.90;90.20;;;;;;5012261;28;19940;-83
2023/04/07 07:10:50;;;;;;;;;;;8.90;90.20;;;;;;5012626;28;19917;-84
2023/04/07 07:13:23;;;;;;;;;;;9.00;90.10;;;;;;5009471;28;19920;-83
2023/04/07 07:15:49;;;;;;;;;;;8.90;90.30;;;;;;5005047;28;19918;-84
2023/04/07 07:18:15;;;;;;;;;;;9.00;90.00;;;;;;5009913;28;19961;-84
2023/04/07 07:20:41;;;;;;;;;;;8.90;89.90;;;;;;5014917;28;19972;-83
2023/04/07 07:23:06;;;;;;;;;;;9.00;89.70;;;;;;5013044;28;19989;-83
2023/04/07 07:25:32;;;;;;;;;;;9.00;89.90;;;;;;5008468;28;19928;-84
2023/04/07 07:27:57;;;;;;;;;;;9.10;89.40;;;;;;5006864;28;19977;-85
2023/04/07 07:30:23;;;;;;;;;;;9.10;89.50;;;;;;5013941;28;19905;-82
2023/04/07 07:32:49;;;;;;;;;;;9.10;89.50;;;;;;5017186;28;19914;-84
2023/04/07 07:35:15;;;;;;;;;;;9.20;89.20;;;;;;5012337;28;20015;-84
2023/04/07 07:37:40;;;;;;;;;;;9.10;89.40;;;;;;5009317;28;20029;-85
2023/04/07 07:40:06;;;;;;;;;;;9.20;89.30;;;;;;5027273;28;19996;-84
2023/04/07 07:42:31;;;;;;;;;;;9.20;89.40;;;;;;5007343;28;19929;-85
2023/04/07 07:44:57;;;;;;;;;;;9.20;89.50;;;;;;5006194;28;19922;-84
2023/04/07 07:47:23;;;;;;;;;;;9.30;89.80;;;;;;5011964;28;19914;-84
2023/04/07 07:49:48;;;;;;;;;;;9.30;89.70;;;;;;4996749;28;19921;-83
2023/04/07 07:52:14;;;;;;;;;;;9.30;88.90;;;;;;5008829;28;19917;-83
2023/04/07 07:54:40;;;;;;;;;;;9.40;89.10;;;;;;5002034;28;19939;-85
2023/04/07 07:57:05;;;;;;;;;;;9.40;88.80;;;;;;5009718;28;19918;-84
2023/04/07 07:59:31;;;;;;;;;;;9.40;89.30;;;;;;5019332;28;19921;-83
2023/04/07 08:01:57;;;;;;;;;;;9.40;89.10;;;;;;5008812;28;19925;-83
2023/04/07 08:04:22;;;;;;;;;;;9.40;89.10;;;;;;5010391;28;19937;-86
2023/04/07 08:06:48;;;;;;;;;;;9.40;89.40;;;;;;5007213;28;19960;-84
2023/04/07 08:09:14;;;;;;;;;;;9.50;88.60;;;;;;5003021;28;19913;-85
2023/04/07 08:11:40;;;;;;;;;;;9.40;88.80;;;;;;5004150;28;19964;-85
2023/04/07 08:14:05;;;;;;;;;;;9.30;88.90;;;;;;5010384;28;19917;-84
2023/04/07 08:16:31;;;;;;;;;;;9.40;88.80;;;;;;5013919;28;20463;-83
2023/04/07 08:18:56;;;;;;;;;;;9.50;88.50;;;;;;5003939;28;19967;-85
2023/04/07 08:21:22;;;;;;;;;;;9.50;88.30;;;;;;5027954;28;19936;-86
2023/04/07 08:23:47;;;;;;;;;;;9.60;88.30;;;;;;5015806;28;19963;-86
2023/04/07 08:26:13;;;;;;;;;;;9.60;88.20;;;;;;5008744;28;19913;-86
2023/04/07 08:28:38;;;;;;;;;;;9.60;87.60;;;;;;5007918;28;19914;-86
2023/04/07 08:31:04;;;;;;;;;;;9.60;87.80;;;;;;5006119;28;20395;-85
2023/04/07 08:33:29;;;;;;;;;;;9.60;88.50;;;;;;5011026;28;19965;-86
2023/04/07 08:35:57;;;;;;;;;;;9.70;88.60;;;;;;5017137;28;19933;-85
2023/04/07 08:38:23;;;;;;;;;;;9.70;88.00;;;;;;5008394;28;20318;-85
2023/04/07 08:40:51;;;;;;;;;;;9.60;88.50;;;;;;5003014;28;19913;-85
2023/04/07 08:43:18;;;;;;;;;;;9.80;87.90;;;;;;5016118;28;19913;-85
2023/04/07 08:45:45;;;;;;;;;;;9.80;88.20;;;;;;5013978;28;19921;-85
2023/04/07 08:48:16;;;;;;;;;;;9.80;87.50;;;;;;5012774;28;20390;-85
2023/04/07 08:50:43;;;;;;;;;;;9.80;87.50;;;;;;5015489;28;19913;-85
2023/04/07 08:53:09;;;;;;;;;;;9.80;87.70;;;;;;5029298;28;19917;-84
2023/04/07 08:55:35;;;;;;;;;;;9.90;87.40;;;;;;5022010;28;19921;-85
2023/04/07 08:58:01;;;;;;;;;;;9.90;87.80;;;;;;5017407;28;19917;-85
2023/04/07 09:00:27;;;;;;;;;;;10.10;88.10;;;;;;5013840;28;19952;-86
2023/04/07 09:02:53;;;;;;;;;;;10.20;87.30;;;;;;4998703;28;20520;-86
2023/04/07 09:05:20;;;;;;;;;;;10.20;87.10;;;;;;5004949;28;20518;-86
2023/04/07 09:07:45;;;;;;;;;;;10.40;87.50;;;;;;5004772;28;19920;-86
2023/04/07 09:10:11;;;;;;;;;;;10.20;87.50;;;;;;5013119;28;19914;-86
2023/04/07 09:12:37;;;;;;;;;;;10.30;87.50;;;;;;5008862;28;19917;-86
2023/04/07 09:15:03;;;;;;;;;;;10.10;87.70;;;;;;5012753;28;19976;-86
2023/04/07 09:17:28;;;;;;;;;;;10.20;87.80;;;;;;5007625;28;19917;-87
2023/04/07 09:19:55;;;;;;;;;;;10.30;86.80;;;;;;5009589;28;19923;-86
2023/04/07 09:22:41;;;;;;;;;;;10.40;86.70;;;;;;5023538;28;20000;-85
2023/04/07 09:25:13;;;;;;;;;;;10.50;86.30;;;;;;5014238;28;20286;-86
2023/04/07 09:27:40;;;;;;;;;;;10.50;86.20;;;;;;5009764;28;19918;-87
2023/04/07 09:30:16;;;;;;;;;;;10.60;84.90;;;;;;5031081;28;19924;-86
2023/04/07 09:32:41;;;;;;;;;;;10.60;86.30;;;;;;5005468;28;19996;-86
2023/04/07 09:35:07;;;;;;;;;;;10.80;86.30;;;;;;4992942;28;20024;-85
2023/04/07 09:37:33;;;;;;;;;;;10.90;85.70;;;;;;5013817;28;19961;-86
2023/04/07 09:39:59;;;;;;;;;;;10.80;85.00;;;;;;5010646;28;20434;-88
2023/04/07 09:42:25;;;;;;;;;;;10.80;85.30;;;;;;5009427;28;19924;-84
2023/04/07 09:44:54;;;;;;;;;;;10.80;85.50;;;;;;5001794;28;19918;-85
2023/04/07 09:47:28;;;;;;;;;;;10.70;85.30;;;;;;5003119;28;19941;-87
2023/04/07 09:49:54;;;;;;;;;;;10.80;85.20;;;;;;5011641;28;19920;-87
2023/04/07 09:52:24;;;;;;;;;;;10.80;84.10;;;;;;5008224;28;20379;-86
2023/04/07 09:54:50;;;;;;;;;;;10.60;84.10;;;;;;5013485;28;20008;-85
2023/04/07 09:57:17;;;;;;;;;;;10.50;84.90;;;;;;5011327;28;19967;-86
2023/04/07 09:59:47;;;;;;;;;;;10.40;85.60;;;;;;5013904;28;19917;-87
2023/04/07 10:02:14;;;;;;;;;;;10.40;86.00;;;;;;5004200;28;19996;-86
2023/04/07 10:04:40;;;;;;;;;;;10.40;86.10;;;;;;5001563;28;20012;-84
2023/04/07 10:07:05;;;;;;;;;;;10.50;86.30;;;;;;5010831;28;20371;-87
2023/04/07 10:09:31;;;;;;;;;;;10.20;86.10;;;;;;5013586;28;20293;-85
2023/04/07 10:11:58;;;;;;;;;;;10.50;85.10;;;;;;5009908;28;19964;-87
2023/04/07 10:14:28;;;;;;;;;;;10.50;85.50;;;;;;5007039;28;19913;-84
2023/04/07 10:16:57;;;;;;;;;;;10.20;85.30;;;;;;5023835;28;19922;-86
2023/04/07 10:19:23;;;;;;;;;;;10.20;86.30;;;;;;5012834;28;19913;-85
2023/04/07 10:21:54;;;;;;;;;;;10.20;86.90;;;;;;5007218;28;19975;-85
2023/04/07 10:24:43;;;;;;;;;;;10.30;86.40;;;;;;5007436;28;19917;-85
2023/04/07 10:27:10;;;;;;;;;;;10.20;86.60;;;;;;5009110;28;19933;-85
2023/04/07 10:29:38;;;;;;;;;;;10.20;86.40;;;;;;5008276;28;19913;-85
2023/04/07 10:32:04;;;;;;;;;;;10.10;86.90;;;;;;5002825;28;20012;-85
2023/04/07 10:34:48;;;;;;;;;;;10.20;87.10;;;;;;5003086;28;19957;-84
2023/04/07 10:37:17;;;;;;;;;;;10.20;86.30;;;;;;5008415;28;19921;-84
2023/04/07 10:39:43;;;;;;;;;;;10.10;86.80;;;;;;5002767;28;19922;-85
2023/04/07 10:42:27;;;;;;;;;;;10.00;86.70;;;;;;4998707;28;19933;-85
2023/04/07 10:44:52;;;;;;;;;;;10.10;86.70;;;;;;5003831;28;19964;-85
2023/04/07 10:47:18;;;;;;;;;;;10.10;86.50;;;;;;5004773;28;19961;-84
2023/04/07 10:50:02;;;;;;;;;;;10.10;86.50;;;;;;5003241;28;20004;-84
2023/04/07 10:52:28;;;;;;;;;;;10.00;86.80;;;;;;5005490;28;19913;-85
2023/04/07 10:55:12;;;;;;;;;;;10.10;87.40;;;;;;4999660;28;19925;-86
2023/04/07 10:57:37;;;;;;;;;;;10.10;87.80;;;;;;5007067;28;19918;-86
2023/04/07 11:00:09;;;;;;;;;;;10.00;87.70;;;;;;5003713;28;20000;-86
2023/04/07 11:02:37;;;;;;;;;;;10.10;87.60;;;;;;5002641;28;19914;-85
2023/04/07 11:05:02;;;;;;;;;;;10.20;87.50;;;;;;4997427;28;20180;-84
2023/04/07 11:07:52;;;;;;;;;;;10.30;87.40;;;;;;5001161;28;19989;-86
2023/04/07 11:10:18;;;;;;;;;;;10.30;86.70;;;;;;4999264;28;20785;-85
2023/04/07 11:12:43;;;;;;;;;;;10.30;86.40;;;;;;5005547;28;19925;-84
2023/04/07 11:15:19;;;;;;;;;;;10.40;86.90;;;;;;5007043;28;19924;-83
2023/04/07 11:17:44;;;;;;;;;;;10.30;86.60;;;;;;5013041;28;19914;-85
2023/04/07 11:20:10;;;;;;;;;;;10.20;86.80;;;;;;5015064;28;19925;-85
2023/04/07 11:22:36;;;;;;;;;;;10.20;86.90;;;;;;5012320;28;20489;-85
2023/04/07 11:25:01;;;;;;;;;;;10.20;86.20;;;;;;5011115;28;19948;-84
2023/04/07 11:27:28;;;;;;;;;;;10.20;86.80;;;;;;5030318;28;20003;-85
2023/04/07 11:29:53;;;;;;;;;;;10.10;86.60;;;;;;5013239;28;20015;-82
2023/04/07 11:32:26;;;;;;;;;;;10.10;86.60;;;;;;5010018;28;20284;-85
2023/04/07 11:34:52;;;;;;;;;;;10.10;86.80;;;;;;5007860;28;19925;-85
2023/04/07 11:37:18;;;;;;;;;;;10.00;86.50;;;;;;5011762;28;19976;-84
2023/04/07 11:39:46;;;;;;;;;;;10.00;86.90;;;;;;5023800;28;19953;-83
2023/04/07 11:42:11;;;;;;;;;;;10.00;87.70;;;;;;5021983;28;19913;-84
2023/04/07 11:44:44;;;;;;;;;;;10.00;87.70;;;;;;5012236;28;19924;-84
2023/04/07 11:47:10;;;;;;;;;;;10.00;88.10;;;;;;5027537;28;19932;-83
2023/04/07 11:49:43;;;;;;;;;;;10.20;88.40;;;;;;5028201;28;19918;-84
2023/04/07 11:52:08;;;;;;;;;;;10.20;88.00;;;;;;5017091;28;19914;-84
2023/04/07 11:54:41;;;;;;;;;;;10.10;87.30;;;;;;5007937;28;19981;-84
2023/04/07 11:57:09;;;;;;;;;;;10.30;88.00;;;;;;5036711;28;19921;-84
2023/04/07 11:59:34;;;;;;;;;;;10.30;87.00;;;;;;5017419;28;19924;-84
2023/04/07 12:02:00;;;;;;;;;;;10.20;87.00;;;;;;5015337;28;19918;-85
2023/04/07 12:04:28;;;;;;;;;;;10.20;87.00;;;;;;5011376;28;19914;-85
2023/04/07 12:06:54;;;;;;;;;;;10.20;87.10;;;;;;5011460;28;19967;-85
2023/04/07 12:09:28;;;;;;;;;;;10.10;87.30;;;;;;5008009;28;19925;-85
2023/04/07 12:11:56;;;;;;;;;;;10.20;87.70;;;;;;5010223;28;20045;-85
2023/04/07 12:14:22;;;;;;;;;;;10.10;87.20;;;;;;5010247;28;20387;-84
2023/04/07 12:16:47;;;;;;;;;;;10.10;87.60;;;;;;5005869;28;19921;-86
2023/04/07 12:19:13;;;;;;;;;;;10.20;87.60;;;;;;5011761;28;20337;-85
2023/04/07 12:21:38;;;;;;;;;;;10.20;87.20;;;;;;5008162;28;19948;-85
2023/04/07 12:24:04;;;;;;;;;;;10.30;87.20;;;;;;5013310;28;20275;-85
2023/04/07 12:26:30;;;;;;;;;;;10.40;87.10;;;;;;5022825;28;19913;-85
2023/04/07 12:28:57;;;;;;;;;;;10.40;86.70;;;;;;5009871;28;19918;-84
2023/04/07 12:31:23;;;;;;;;;;;10.30;86.00;;;;;;5013376;28;19920;-85
2023/04/07 12:33:48;;;;;;;;;;;10.30;86.70;;;;;;5007245;28;19914;-84
2023/04/07 12:36:13;;;;;;;;;;;10.30;86.80;;;;;;5005553;28;19918;-85
2023/04/07 12:38:39;;;;;;;;;;;10.10;86.70;;;;;;5006180;28;20382;-84
2023/04/07 12:41:04;;;;;;;;;;;10.20;87.10;;;;;;5013868;28;19913;-84
2023/04/07 12:43:30;;;;;;;;;;;10.20;87.10;;;;;;5013712;28;19936;-85
2023/04/07 12:45:56;;;;;;;;;;;10.20;86.50;;;;;;5015210;28;19921;-84
2023/04/07 12:48:22;;;;;;;;;;;10.10;87.10;;;;;;5014674;28;19919;-85
2023/04/07 12:50:48;;;;;;;;;;;10.20;87.00;;;;;;5005790;28;20280;-84
2023/04/07 12:53:13;;;;;;;;;;;10.10;87.20;;;;;;5011731;28;19920;-83
2023/04/07 12:55:39;;;;;;;;;;;10.00;87.70;;;;;;5014379;28;19937;-83
2023/04/07 12:58:04;;;;;;;;;;;10.10;87.90;;;;;;5011151;28;19918;-84
2023/04/07 13:00:30;;;;;;;;;;;10.00;88.10;;;;;;5015448;28;19960;-82
2023/04/07 13:02:56;;;;;;;;;;;10.10;88.20;;;;;;5026534;28;19914;-83
2023/04/07 13:05:22;;;;;;;;;;;10.10;88.30;;;;;;5014692;28;19961;-85
2023/04/07 13:07:48;;;;;;;;;;;10.00;88.00;;;;;;5020142;28;19955;-84
2023/04/07 13:10:13;;;;;;;;;;;10.10;88.10;;;;;;5018099;28;19945;-85
2023/04/07 13:12:40;;;;;;;;;;;10.20;87.70;;;;;;5004330;28;20008;-85
2023/04/07 13:15:06;;;;;;;;;;;10.20;87.70;;;;;;5009490;28;20020;-82
2023/04/07 13:17:32;;;;;;;;;;;10.20;87.50;;;;;;5008852;28;19914;-84
2023/04/07 13:19:57;;;;;;;;;;;10.20;87.50;;;;;;5012049;28;20414;-85
2023/04/07 13:22:23;;;;;;;;;;;10.30;87.50;;;;;;5019969;28;19905;-85
2023/04/07 13:24:48;;;;;;;;;;;10.50;87.30;;;;;;5010572;28;19913;-85
2023/04/07 13:27:14;;;;;;;;;;;10.50;86.70;;;;;;5015791;28;19922;-84
2023/04/07 13:29:40;;;;;;;;;;;10.50;86.80;;;;;;5014461;28;19922;-84
2023/04/07 13:32:09;;;;;;;;;;;10.30;86.70;;;;;;5004869;28;20407;-84
2023/04/07 13:34:35;;;;;;;;;;;10.40;86.80;;;;;;5014502;28;19923;-85
2023/04/07 13:37:02;;;;;;;;;;;10.30;87.10;;;;;;5014546;28;19933;-84
2023/04/07 13:39:27;;;;;;;;;;;10.20;87.40;;;;;;5015622;28;19928;-84
2023/04/07 13:41:53;;;;;;;;;;;10.20;87.40;;;;;;5011793;28;20327;-85
2023/04/07 13:44:18;;;;;;;;;;;10.20;87.80;;;;;;5020541;28;19914;-85
2023/04/07 13:46:44;;;;;;;;;;;10.30;87.80;;;;;;5010175;28;19925;-84
2023/04/07 13:49:09;;;;;;;;;;;10.40;87.30;;;;;;5001223;28;19921;-84
2023/04/07 13:51:35;;;;;;;;;;;10.30;87.20;;;;;;5008730;28;19953;-84
2023/04/07 13:54:00;;;;;;;;;;;10.30;86.70;;;;;;5001155;28;20431;-83
2023/04/07 13:56:25;;;;;;;;;;;10.20;87.00;;;;;;5022851;28;20000;-85
2023/04/07 13:58:51;;;;;;;;;;;10.20;86.80;;;;;;5019994;28;19914;-85
2023/04/07 14:01:16;;;;;;;;;;;10.10;87.10;;;;;;5020220;28;19922;-84
2023/04/07 14:03:42;;;;;;;;;;;10.10;87.30;;;;;;5003642;28;19921;-85
2023/04/07 14:06:07;;;;;;;;;;;10.00;87.70;;;;;;5022701;28;20023;-85
2023/04/07 14:08:33;;;;;;;;;;;9.90;87.90;;;;;;5001343;28;19913;-85
2023/04/07 14:10:58;;;;;;;;;;;9.90;88.30;;;;;;4996418;28;19917;-85
2023/04/07 14:13:24;;;;;;;;;;;9.80;88.30;;;;;;5004846;28;19977;-85
2023/04/07 14:15:49;;;;;;;;;;;9.80;88.60;;;;;;5010439;28;19917;-85
2023/04/07 14:18:16;;;;;;;;;;;9.90;88.80;;;;;;5004481;28;19930;-84
2023/04/07 14:20:41;;;;;;;;;;;10.20;88.50;;;;;;5003512;28;19964;-85
2023/04/07 14:23:07;;;;;;;;;;;10.10;87.70;;;;;;5017206;28;19925;-85
2023/04/07 14:25:33;;;;;;;;;;;10.10;88.30;;;;;;5000373;28;19913;-87
2023/04/07 14:27:58;;;;;;;;;;;10.10;88.40;;;;;;5006478;28;19917;-85